Historyczne dane pomiarowe

Dodano dane terminowe – wersja testowa.

Dane z okresu 1951-2019

Wersja bazy: 1.34 [2019-03-16, lista zmian], aktualizacja planowana na 2019-04-15

Dane meteo z obszaru Polski uzyskane na podstawie danych udostępnionych przez Instytut Meteorologii i Gospodarki Wodnej – Państwowy Instytut Badawczy.

 

Wybierz Datę:    

       

TemperaturaWilgotnośćWiatrCiśnienieOpadyŚniegCzas trwania zjawisk
 Stacja t tx tn tng RH VA  wxwx mslp ppp RRR   cm mm wxwxwxwxwxwxwx
1999-08-14 15.2 20.1 10.7 9.2 71.3 12.4 3.7 3.3--1011.2 978.3 0.0 0.0 0.0- 0.0 10.8-------
1999-08-13 16.2 19.5 13.4 12.0 74.5 13.9 7.3 0.3--1012.2 979.4 0.0 0.0 0.0- 0.0 0.3-------
1999-08-12 17.7 21.2 15.7 14.8 80.5 15.0 6.0 2.3--1014.8 982.0 0.0 0.0 0.0- 0.0 2.4-------
1999-08-11 20.5 24.1 17.5 16.2 83.0 19.7 4.3 2.0--1012.3 979.9 4.0 0.0 4.0- 0.0 5.9-------
1999-08-10 22.5 29.6 18.2 14.9 84.3 23.2 5.3 1.3--1008.2 976.2 13.0 0.0 13.0- 0.0 7.0-------
1999-08-09 24.3 31.2 17.8 15.9 70.5 22.4 3.3 1.3--1007.2 975.5 0.7 0.0 0.7- 0.0 10.6-------
1999-08-08 22.0 25.7 19.6 16.3 79.8 20.6 5.3 2.0--1004.9 972.9 0.0 0.0 0.0- 0.0 6.4-------
1999-08-07 21.9 28.2 15.5 12.8 70.5 18.2 3.0 1.7--1008.7 976.7 0.0 0.0 0.0- 0.0 12.4-------
1999-08-06 18.6 25.1 14.7 13.0 82.5 18.3 6.7 1.3--1011.9 979.4 6.3 6.3 0.0- 0.0 3.1-------
1999-08-05 18.4 25.2 11.2 10.4 73.3 15.2 4.3 1.0--1015.8 983.3 0.0 0.0 0.0- 0.0 12.3-------
1999-08-04 16.8 21.9 13.5 11.8 83.5 16.0 5.7 2.0--1016.2 983.4 0.1 0.1 0.0- 0.0 3.9-------
1999-08-03 16.4 19.5 14.6 11.3 82.8 15.4 7.7 1.7--1016.6 983.6 1.1 0.5 0.6- 0.0 0.4-------
1999-08-02 16.3 20.3 13.3 12.6 88.5 16.1 7.0 4.3--1017.2 984.2 2.6 2.6 0.0- 0.0 0.9-------
1999-08-01 18.1 21.9 15.5 13.4 69.3 14.7 6.7 3.7--1017.4 984.6 2.5 0.0 2.5- 0.0 3.5-------
1999-07-31 18.9 23.4 15.2 13.3 63.3 13.7 6.0 2.7--1014.7 982.1 0.0 0.0 0.0- 0.0 5.5-------
1999-07-30 17.6 23.4 11.7 9.7 65.3 13.9 6.0 3.0--1014.8 982.2 0.0 0.0 0.0- 0.0 9.2-------
1999-07-29 17.8 22.5 13.7 12.3 69.0 13.8 2.7 4.0--1017.5 984.7 0.0 0.0 0.0- 0.0 13.1-------
1999-07-28 17.6 20.6 15.8 15.3 94.8 17.7 6.7 3.0--1017.6 984.6 1.4 1.4 0.0- 0.0 3.7-------
1999-07-27 20.1 24.9 17.2 16.0 84.8 20.6 7.3 2.3--1016.0 983.5 3.5 3.5 0.0- 0.0 3.2-------
1999-07-26 21.9 28.0 16.9 14.3 74.5 20.2 4.3 2.7--1015.0 982.7 5.3 0.0 5.3- 0.0 11.6-------
1999-07-25 18.2 22.6 13.0 11.8 85.5 18.7 5.0 1.7--1020.5 987.7 0.0 0.0 0.0- 0.0 3.5-------
1999-07-24 17.1 21.9 13.2 12.4 82.0 15.5 6.7 0.7--1020.1 987.1 0.0 0.0 0.0- 0.0 2.2-------
1999-07-23 16.2 21.9 13.9 13.3 95.5 15.9 8.0 3.3--1012.8 979.8 9.2 9.2 0.0- 0.0 0.0-------
1999-07-22 22.1 26.8 19.2 17.8 70.0 18.0 6.7 3.3--1011.5 979.3 21.4 0.0 21.4- 0.0 7.1-------
1999-07-21 23.1 29.2 19.2 16.8 65.5 18.9 4.0 2.3--1012.0 979.9 0.0 0.0 0.0- 0.0 10.8-------
1999-07-20 22.7 28.3 17.2 15.3 56.8 16.0 3.0 3.3--1014.0 981.9 0.0 0.0 0.0- 0.0 12.1-------
1999-07-19 19.9 26.2 13.0 11.7 63.5 15.4 5.3 2.3--1017.9 985.4 0.0 0.0 0.0- 0.0 11.2-------
1999-07-18 18.0 24.1 12.2 10.8 70.0 13.9 2.7 1.7--1020.4 987.6 0.0 0.0 0.0- 0.0 9.9-------
1999-07-17 16.8 22.9 10.2 9.3 69.3 13.1 5.3 2.3--1020.6 987.7 0.0 0.0 0.0- 0.0 12.4-------
1999-07-16 16.4 21.7 10.6 10.2 75.0 14.6 2.7 2.7--1016.6 983.8 0.4 0.4 0.0- 0.0 9.3-------
1999-07-15 16.9 20.6 13.9 13.7 93.0 17.3 6.3 2.7--1009.6 976.8 10.8 10.8 0.0- 0.0 1.6-------
1999-07-14 21.1 26.5 16.7 15.0 76.0 19.3 6.3 1.3--1004.7 972.7 9.5 1.0 8.5- 0.0 4.7-------
1999-07-13 20.7 25.2 16.5 13.8 81.5 19.8 7.0 2.3--1011.2 978.8 3.7 3.7 0.0- 0.0 2.7-------
1999-07-12 21.6 27.4 17.1 14.0 69.0 18.9 5.7 2.7--1016.9 984.6 0.0 0.0 0.0- 0.0 7.0-------
1999-07-11 21.2 25.3 16.5 16.2 58.0 15.3 6.0 6.0--1020.6 988.2 0.0 0.0 0.0- 0.0 8.2-------
1999-07-10 19.6 23.9 16.5 16.3 86.5 18.9 8.0 4.0--1021.3 988.5 0.0 0.0 0.0- 0.0 0.0-------
1999-07-09 21.6 26.3 16.5 16.0-------- 0.0--- 0.0 10.4-------
1999-07-08 22.3 26.9 17.9 17.2 86.5 24.2 6.7 2.0--1015.9 983.7 0.0 0.0 0.0- 0.0 4.6-------
1999-07-07 23.8 28.8 19.6 17.6 71.8 22.9 4.0 3.0--1014.1 982.1 0.2 0.2 0.0- 0.0 7.8-------
1999-07-06 25.3 31.4 17.8 15.8 57.0 20.0 1.0 3.3--1012.9 981.2 0.0 0.0 0.0- 0.0 13.6-------
1999-07-05 24.9 31.4 19.6 14.6 65.3 20.1 0.7 1.0--1015.3 983.4 0.0 0.0 0.0- 0.0 14.0-------
1999-07-04 22.7 29.8 14.9 12.7 67.8 19.0 0.7 0.7--1015.4 983.3 0.0 0.0 0.0- 0.0 14.5-------
1999-07-03 20.6 25.4 15.0 14.7 77.0 18.8 3.7 2.0--1015.6 983.1 0.0 0.0 0.0- 0.0 8.8-------
1999-07-02 20.8 25.3 16.0 13.6 72.8 18.3 5.0 2.3--1013.9 981.6 0.0 0.0 0.0- 0.0 12.1-------
1999-07-01 20.3 25.4 13.3 13.2 58.5 15.0 5.0 2.7--1015.6 983.3 0.0 0.0 0.0- 0.0 12.6-------
1999-06-30 20.3 25.5 13.7 13.4 74.8 18.4 4.0 0.3--1017.2 984.8 0.0 0.0 0.0- 0.0 11.9-------
1999-06-29 20.8 26.8 16.6 13.4 75.3 17.6 2.7 3.0--1019.2 986.6 0.0 0.0 0.0- 0.0 14.6-------
1999-06-28 22.2 28.0 15.2 10.3 64.3 17.3 3.7 1.3--1013.7 981.6 0.0 0.0 0.0- 0.0 14.3-------
1999-06-27 17.9 24.9 9.7 8.1 67.8 14.7 0.3 3.3--1015.7 983.2 0.0 0.0 0.0- 0.0 15.0-------
1999-06-26 15.3 21.5 6.6 6.1 72.3 13.4 0.7 2.0--1017.4 984.5 0.0 0.0 0.0- 0.0 13.9-------
1999-06-25 13.8 18.4 9.1 8.7 79.0 12.2 5.3 2.3--1020.2 986.9 0.0 0.0 0.0- 0.0 6.3-------
1999-06-24 10.5 11.4 9.1 8.8 96.0 12.5 8.0 3.0--1021.9 988.1 9.2 0.8 8.4- 0.0 0.0-------
1999-06-23 9.7 11.4 7.7 7.4 94.5 11.7 8.0 7.3--1015.3 981.6 17.0 11.2 5.8- 0.0 0.0-------
1999-06-22 14.5 19.7 10.6 10.2 92.5 15.7 7.3 5.3--1001.9 969.2 4.3 0.1 4.2- 0.0 1.3-------
1999-06-21 18.9 24.5 13.5 13.3 81.5 19.3 6.7 2.3--1005.8 973.6 1.7 1.5 0.2- 0.0 7.8-------
1999-06-20 19.5 23.9 16.1 15.3 84.5 18.8 7.0 2.0--1014.7 982.1 0.1 0.1 0.0- 0.0 4.4-------
1999-06-19 19.1 24.1 13.8 13.5 82.3 18.7 5.7 2.7--1015.4 982.8 0.0 0.0 0.0- 0.0 12.3-------
1999-06-18 18.8 25.6 13.4 13.0 82.3 18.9 6.3 2.3--1011.2 978.7 1.3 1.3 0.0- 0.0 6.1-------
1999-06-17 20.0 24.4 16.0 15.3 84.8 20.2 7.0 1.3--1015.1 982.7 0.2 0.2 0.0- 0.0 3.2-------
1999-06-16 19.0 22.0 16.0 15.3 90.3 20.1 7.7 2.0--1020.5 987.7 1.6 1.6 0.0- 0.0 1.3-------
377.0 ms

 

Źródłem pochodzenia danych jest Instytut Meteorologii i Gospodarki Wodnej – Państwowy Instytut Badawczy. Dane Instytutu Meteorologii i Gospodarki Wodnej – Państwowego Instytutu Badawczego zostały przetworzone.

Dane źródłowe można odnaleźć na stronie https://dane.imgw.pl